createdAt,value
2022-08-01T00:04:43.896Z,17.1
2022-08-01T00:10:43.895Z,17
2022-08-01T00:16:43.895Z,16.9
2022-08-01T00:22:43.903Z,16.9
2022-08-01T00:28:43.928Z,16.9
2022-08-01T00:34:43.946Z,16.8
2022-08-01T00:40:43.872Z,16.9
2022-08-01T00:46:43.888Z,17
2022-08-01T00:52:43.903Z,17
2022-08-01T00:58:43.871Z,17.1
2022-08-01T01:04:44.002Z,17
2022-08-01T01:10:43.890Z,17.3
2022-08-01T01:16:43.893Z,17.4
2022-08-01T01:22:43.871Z,17.3
2022-08-01T01:28:43.883Z,17.6
2022-08-01T01:34:43.913Z,18
2022-08-01T01:40:43.917Z,17.9
2022-08-01T01:46:43.907Z,18.1
2022-08-01T01:52:43.921Z,18.3
2022-08-01T01:58:43.912Z,19.4
2022-08-01T02:04:43.903Z,19.5
2022-08-01T02:10:43.904Z,19.3
2022-08-01T02:16:43.898Z,19.5
2022-08-01T02:22:43.881Z,19.4
2022-08-01T02:28:43.902Z,19.4
2022-08-01T02:34:43.915Z,19.5
2022-08-01T02:40:43.935Z,19.6
2022-08-01T02:46:43.915Z,19.6
2022-08-01T02:52:43.949Z,19.7
2022-08-01T02:58:43.923Z,19.7
2022-08-01T03:04:43.906Z,19.7
2022-08-01T03:10:43.909Z,19.5
2022-08-01T03:16:43.921Z,19.5
2022-08-01T03:22:43.933Z,19.5
2022-08-01T03:28:43.929Z,19.4
2022-08-01T03:34:43.919Z,19.5
2022-08-01T03:40:43.918Z,19.4
2022-08-01T03:46:43.923Z,19.3
2022-08-01T03:52:44.070Z,19.3
2022-08-01T03:58:43.921Z,19.4
2022-08-01T04:04:43.948Z,19.4
2022-08-01T04:10:43.920Z,19.5
2022-08-01T04:16:43.925Z,19.4
2022-08-01T04:22:43.943Z,19.4
2022-08-01T04:28:43.926Z,19.3
2022-08-01T04:34:43.937Z,19.5
2022-08-01T04:40:43.923Z,19.5
2022-08-01T04:46:43.985Z,19.4
2022-08-01T04:52:43.924Z,19.4
2022-08-01T04:58:43.946Z,19.3
2022-08-01T05:04:43.944Z,19.4
2022-08-01T05:10:43.944Z,19.2
2022-08-01T05:16:43.941Z,19.3
2022-08-01T05:22:43.935Z,19.4
2022-08-01T05:28:43.942Z,19.2
2022-08-01T05:34:43.965Z,19.4
2022-08-01T05:40:43.968Z,19.4
2022-08-01T05:46:43.933Z,19.2
2022-08-01T05:52:43.945Z,19.4
2022-08-01T05:58:43.954Z,19.5
2022-08-01T06:04:43.969Z,19.6
2022-08-01T06:10:44.025Z,19.5
2022-08-01T06:16:43.958Z,19.4
2022-08-01T06:22:43.972Z,19.7
2022-08-01T06:28:43.958Z,19.6
2022-08-01T06:34:43.986Z,19.5
2022-08-01T06:40:43.965Z,19.3
2022-08-01T06:46:43.961Z,19.4
2022-08-01T06:52:43.966Z,19.3
2022-08-01T06:58:43.958Z,19.9
2022-08-01T07:04:43.997Z,20.2
2022-08-01T07:10:43.980Z,19.8
2022-08-01T07:16:43.974Z,19.6
2022-08-01T07:22:43.964Z,19.8
2022-08-01T07:28:44.250Z,18.9
2022-08-01T07:34:43.988Z,18.9
2022-08-01T07:40:43.976Z,18.9
2022-08-01T07:46:44.033Z,18.9
2022-08-01T07:52:43.984Z,18.9
2022-08-01T07:58:43.986Z,18.4
2022-08-01T08:04:48.742Z,17.8
2022-08-01T08:10:44.001Z,18.1
2022-08-01T08:16:43.998Z,18.2
2022-08-01T08:22:43.990Z,17.7
2022-08-01T08:28:43.971Z,17.5
2022-08-01T08:40:43.999Z,18
2022-08-01T08:46:44.008Z,17.7
2022-08-01T08:52:44.001Z,17.8
2022-08-01T08:58:43.996Z,17.6
2022-08-01T09:04:44.028Z,17.9
2022-08-01T09:10:44.036Z,17.3
2022-08-01T09:16:48.321Z,17.7
2022-08-01T09:22:47.653Z,17.6
2022-08-01T09:28:47.845Z,17.3
2022-08-01T09:34:44.039Z,17.8
2022-08-01T09:40:44.017Z,17.2
2022-08-01T09:46:44.015Z,17.6
2022-08-01T09:52:44.015Z,18.2
2022-08-01T09:58:44.040Z,18
2022-08-01T10:04:44.021Z,18.7
2022-08-01T10:10:44.039Z,17.3
2022-08-01T10:16:44.044Z,16.8
2022-08-01T10:22:44.021Z,18.3
2022-08-01T10:28:44.126Z,17.2
2022-08-01T10:34:44.852Z,17
2022-08-01T10:40:44.036Z,17.8
2022-08-01T10:46:45.727Z,16.8
2022-08-01T10:52:44.066Z,16.6
2022-08-01T10:58:44.564Z,17.2
2022-08-01T11:04:44.261Z,16
2022-08-01T11:10:44.074Z,16.7
2022-08-01T11:16:44.048Z,16.6
2022-08-01T11:22:44.069Z,16.1
2022-08-01T11:29:04.725Z,16.6
2022-08-01T11:34:44.071Z,16.8
2022-08-01T11:40:44.074Z,15.6
2022-08-01T11:46:44.064Z,16.4
2022-08-01T11:52:44.062Z,16.5
2022-08-01T11:58:44.076Z,16.3
2022-08-01T12:04:44.066Z,15.6
2022-08-01T12:10:49.358Z,15.6
2022-08-01T12:16:44.079Z,15.5
2022-08-01T12:46:44.561Z,15.9
2022-08-01T12:52:44.086Z,15.9
2022-08-01T12:58:44.097Z,15.9
2022-08-01T13:04:46.927Z,15.8
2022-08-01T13:10:44.102Z,15.8
2022-08-01T13:16:56.823Z,15.6
2022-08-01T13:22:44.115Z,16.1
2022-08-01T13:28:44.374Z,15.8
2022-08-01T13:34:44.122Z,16.1
2022-08-01T13:40:44.104Z,14.9
2022-08-01T13:46:49.274Z,15.1
2022-08-01T13:52:44.121Z,14.9
2022-08-01T13:58:44.123Z,15
2022-08-01T14:04:44.098Z,15.2
2022-08-01T14:10:44.124Z,15.5
2022-08-01T14:16:44.116Z,14.9
2022-08-01T14:22:44.132Z,14
2022-08-01T14:28:44.099Z,14.4
2022-08-01T14:34:44.118Z,15
2022-08-01T14:40:44.145Z,14.9
2022-08-01T14:46:57.623Z,14.4
2022-08-01T14:52:44.135Z,15.1
2022-08-01T14:58:44.124Z,14.9
2022-08-01T15:04:44.151Z,14.8
2022-08-01T15:10:44.109Z,14.7
2022-08-01T15:16:44.129Z,14.6
2022-08-01T15:22:44.154Z,14.2
2022-08-01T15:28:44.123Z,14.4
2022-08-01T15:34:44.127Z,13.8
2022-08-01T15:40:44.141Z,14.3
2022-08-01T15:46:44.162Z,14.2
2022-08-01T15:52:44.151Z,14.4
2022-08-01T15:58:44.154Z,14.4
2022-08-01T16:04:44.143Z,13.6
2022-08-01T16:10:44.156Z,13.7
2022-08-01T16:16:44.151Z,13.6
2022-08-01T16:22:44.171Z,13.6
2022-08-01T16:28:44.168Z,13.9
2022-08-01T16:34:46.746Z,14.1
2022-08-01T16:40:47.418Z,14.4
2022-08-01T16:46:44.213Z,14.6
2022-08-01T16:52:44.206Z,14.3
2022-08-01T16:58:44.178Z,14.5
2022-08-01T17:04:44.172Z,14.1
2022-08-01T17:10:44.175Z,14.5
2022-08-01T17:16:44.209Z,14.6
2022-08-01T17:22:44.173Z,14.8
2022-08-01T17:28:44.190Z,14.4
2022-08-01T17:34:44.503Z,14.6
2022-08-01T17:40:44.209Z,14.4
2022-08-01T17:46:45.359Z,14.6
2022-08-01T17:52:44.210Z,14.8
2022-08-01T17:58:50.955Z,14.7
2022-08-01T18:04:44.506Z,14.7
2022-08-01T18:10:44.184Z,14.7
2022-08-01T18:16:44.195Z,14.8
2022-08-01T18:22:44.207Z,14.9
2022-08-01T18:28:46.806Z,14.7
2022-08-01T18:34:44.204Z,14.7
2022-08-01T18:40:44.201Z,15
2022-08-01T18:46:44.208Z,14.7
2022-08-01T18:52:44.203Z,14.7
2022-08-01T18:58:44.219Z,14.6
2022-08-01T19:04:44.212Z,14.6
2022-08-01T19:10:44.204Z,14.7
2022-08-01T19:16:44.262Z,14.7
2022-08-01T19:22:44.245Z,14.7
2022-08-01T19:28:44.198Z,14.8
2022-08-01T19:34:44.190Z,14.8
2022-08-01T19:40:44.197Z,14.8
2022-08-01T19:46:44.198Z,14.9
2022-08-01T19:52:44.200Z,14.8
2022-08-01T19:58:44.208Z,14.9
2022-08-01T20:04:44.221Z,14.9
2022-08-01T20:10:44.208Z,14.8
2022-08-01T20:16:44.218Z,14.9
2022-08-01T20:22:44.220Z,14.8
2022-08-01T20:28:44.219Z,14.8
2022-08-01T20:34:44.232Z,14.9
2022-08-01T20:40:44.227Z,14.9
2022-08-01T20:46:44.231Z,14.9
2022-08-01T20:52:44.227Z,14.9
2022-08-01T20:58:44.257Z,14.9
2022-08-01T21:04:44.278Z,14.7
2022-08-01T21:10:44.237Z,14.8
2022-08-01T21:16:44.240Z,14.7
2022-08-01T21:22:44.263Z,14.7
2022-08-01T21:28:54.097Z,14.7
2022-08-01T21:34:44.257Z,14.6
2022-08-01T21:40:44.237Z,14.6
2022-08-01T21:46:44.232Z,14.8
2022-08-01T21:52:44.730Z,14.8
2022-08-01T21:58:44.277Z,14.7
2022-08-01T22:04:44.259Z,14.6
2022-08-01T22:10:44.259Z,14.6
2022-08-01T22:16:44.421Z,14.4
2022-08-01T22:22:51.910Z,14.4
2022-08-01T22:28:44.238Z,14.3
2022-08-01T22:34:44.255Z,14.4
2022-08-01T22:40:44.272Z,14.4
2022-08-01T22:46:44.245Z,14.6
2022-08-01T22:52:44.258Z,14.6
2022-08-01T22:58:44.261Z,14.4
2022-08-01T23:04:44.245Z,14.3
2022-08-01T23:10:44.263Z,14.4
2022-08-01T23:16:44.259Z,14.4
2022-08-01T23:22:44.257Z,14.4
2022-08-01T23:28:44.274Z,14.6
2022-08-01T23:34:44.272Z,14.6
2022-08-01T23:40:44.263Z,14.7
2022-08-01T23:46:44.278Z,14.6
2022-08-01T23:52:48.471Z,14.6
2022-08-01T23:58:44.267Z,14.7
